Lucernemines, Pennsylvania
Current Conditions -  °F | °C
As of 4:35 PM on Thursday 18 Dec 2014 (Local Time) from KIDI Reporting Station
Overcast Overcast  
Wind Chill: 20°   Ceiling: 2400
Heat Index: 28°   Visibility: 10mi
Dew Point: 25°   Wind: 9mph
Humidity: 86%   Direction: 290°WNW
Pressure: 30.15"   Gusts: NA
Location:  40.56°N, 79.13°W
Report Text: KIDI 182135Z AUTO 29008KT 10SM FEW019 OVC024 M02/M04 A3015 RMK A01
Loading
Personal Weather Stations






























Interactive Weather Map New forecast layout! Learn more

10-Day Weather Forecast

Advertisements
Track Severe Weather on mobile